Time,TemperatureF,DewpointF,PressureIn,WindDirection,WindDirectionDegrees,WindSpeedMPH,WindSpeedGustMPH,Humidity,HourlyPrecipIn,Conditions,Clouds,dailyrainin,SoftwareType,DateUTC
2013-01-21 12:00:00,16.5,4.3,29.81,West,270,9.2,9.2,58,0.00,,,0.00,WUHU21623XXSP,2013-01-21 17:00:00,
2013-01-21 12:05:00,16.1,3.5,29.81,SW,225,7.2,9.2,57,0.00,,,0.00,WUHU21623XXSP,2013-01-21 17:05:00,
2013-01-21 12:15:00,15.0,2.5,29.81,SW,225,4.9,4.9,57,0.00,,,0.00,WUHU21623XXSP,2013-01-21 17:15:00,
2013-01-21 12:21:00,14.7,2.2,29.80,WSW,247,1.6,4.9,57,0.00,,,0.00,WUHU21623XXSP,2013-01-21 17:21:00,
2013-01-21 12:26:00,14.7,2.2,29.80,South,180,6.3,6.3,57,0.00,,,0.00,WUHU21623XXSP,2013-01-21 17:26:00,
2013-01-21 12:31:00,14.8,2.3,29.80,SSW,202,6.0,6.3,57,0.00,,,0.00,WUHU21623XXSP,2013-01-21 17:31:00,
2013-01-21 12:36:00,15.2,2.7,29.80,SSW,202,0.0,6.0,57,0.00,,,0.00,WUHU21623XXSP,2013-01-21 17:36:00,
2013-01-21 12:45:00,14.7,1.8,29.80,West,270,6.5,6.5,56,0.00,,,0.00,WUHU21623XXSP,2013-01-21 17:45:00,
2013-01-21 12:49:00,14.1,1.3,29.80,WNW,292,13.0,13.0,56,0.00,,,0.00,WUHU21623XXSP,2013-01-21 17:49:00,
2013-01-21 12:54:00,14.1,1.3,29.80,WSW,247,6.9,13.0,56,0.00,,,0.00,WUHU21623XXSP,2013-01-21 17:54:00,
2013-01-21 13:00:00,13.9,1.5,29.79,NW,315,6.0,8.5,57,0.00,,,0.00,WUHU21623XXSP,2013-01-21 18:00:00,
2013-01-21 13:05:00,13.9,1.5,29.79,NW,315,6.0,8.5,57,0.00,,,0.00,WUHU21623XXSP,2013-01-21 18:05:00,
2013-01-21 13:10:00,14.8,2.3,29.79,NNW,337,7.8,7.8,57,0.00,,,0.00,WUHU21623XXSP,2013-01-21 18:10:00,
2013-01-21 13:15:00,14.8,1.9,29.79,WSW,247,6.7,7.8,56,0.00,,,0.00,WUHU21623XXSP,2013-01-21 18:15:00,
2013-01-21 13:20:00,14.8,1.9,29.79,NW,315,8.5,8.5,56,0.00,,,0.00,WUHU21623XXSP,2013-01-21 18:20:00,
2013-01-21 13:25:00,14.8,1.9,29.79,West,270,13.0,13.0,56,0.00,,,0.00,WUHU21623XXSP,2013-01-21 18:25:00,
2013-01-21 13:30:00,14.5,1.3,29.80,WNW,292,3.1,13.0,55,0.00,,,0.00,WUHU21623XXSP,2013-01-21 18:30:00,
2013-01-21 13:35:00,14.1,0.9,29.80,NNW,337,3.4,3.4,55,0.00,,,0.00,WUHU21623XXSP,2013-01-21 18:35:00,
2013-01-21 13:40:00,13.6,0.4,29.79,SW,225,8.3,8.3,55,0.00,,,0.00,WUHU21623XXSP,2013-01-21 18:40:00,
2013-01-21 13:45:00,13.6,0.4,29.80,NW,315,5.1,8.3,55,0.00,,,0.00,WUHU21623XXSP,2013-01-21 18:45:00,
2013-01-21 13:50:00,13.8,0.6,29.79,WSW,247,8.5,8.5,55,0.00,,,0.00,WUHU21623XXSP,2013-01-21 18:50:00,
2013-01-21 13:55:00,13.2,0.0,29.80,WNW,292,6.9,8.5,55,0.00,,,0.00,WUHU21623XXSP,2013-01-21 18:55:00,
2013-01-21 14:00:00,13.0,-0.2,29.80,SSW,202,6.7,6.9,55,0.00,,,0.00,WUHU21623XXSP,2013-01-21 19:00:00,
2013-01-21 14:05:00,12.7,0.0,29.80,WSW,247,2.7,6.7,56,0.00,,,0.00,WUHU21623XXSP,2013-01-21 19:05:00,
2013-01-21 14:10:00,12.7,0.0,29.80,WNW,292,4.3,4.3,56,0.00,,,0.00,WUHU21623XXSP,2013-01-21 19:10:00,
2013-01-21 14:14:00,12.7,0.0,29.80,West,270,1.3,4.3,56,0.00,,,0.00,WUHU21623XXSP,2013-01-21 19:14:00,
2013-01-21 14:27:00,12.9,-0.2,29.80,NW,315,2.2,2.2,55,0.00,,,0.00,WUHU21623XXSP,2013-01-21 19:27:00,
2013-01-21 14:32:00,12.9,-0.2,29.80,WNW,292,14.3,14.3,55,0.00,,,0.00,WUHU21623XXSP,2013-01-21 19:32:00,
2013-01-21 14:37:00,12.9,-0.2,29.80,West,270,3.6,14.3,55,0.00,,,0.00,WUHU21623XXSP,2013-01-21 19:37:00,
2013-01-21 14:42:00,12.9,-0.2,29.80,SW,225,4.7,4.7,55,0.00,,,0.00,WUHU21623XXSP,2013-01-21 19:42:00,
2013-01-21 14:47:00,12.9,-0.2,29.80,WSW,247,1.8,4.7,55,0.00,,,0.00,WUHU21623XXSP,2013-01-21 19:47:00,
2013-01-21 14:52:00,12.9,-0.2,29.80,North,0,7.8,7.8,55,0.00,,,0.00,WUHU21623XXSP,2013-01-21 19:52:00,
2013-01-21 14:57:00,12.7,-0.8,29.80,West,270,9.4,9.4,54,0.00,,,0.00,WUHU21623XXSP,2013-01-21 19:57:00,
2013-01-21 15:02:00,12.3,-1.2,29.80,West,270,6.3,9.4,54,0.00,,,0.00,WUHU21623XXSP,2013-01-21 20:02:00,
2013-01-21 15:07:00,12.1,-1.0,29.80,WNW,292,11.2,11.2,55,0.00,,,0.00,WUHU21623XXSP,2013-01-21 20:07:00,
2013-01-21 15:12:00,12.1,-0.6,29.81,West,270,11.6,11.6,56,0.00,,,0.00,WUHU21623XXSP,2013-01-21 20:12:00,
2013-01-21 15:17:00,11.8,-1.3,29.81,NW,315,8.1,11.6,55,0.00,,,0.00,WUHU21623XXSP,2013-01-21 20:17:00,
2013-01-21 15:22:00,11.8,-0.9,29.81,WNW,292,6.7,8.1,56,0.00,,,0.00,WUHU21623XXSP,2013-01-21 20:22:00,
2013-01-21 15:27:00,11.8,-0.9,29.82,WNW,292,4.9,6.7,56,0.00,,,0.00,WUHU21623XXSP,2013-01-21 20:27:00,
2013-01-21 15:32:00,11.6,-0.7,29.82,WNW,292,9.8,9.8,57,0.00,,,0.00,WUHU21623XXSP,2013-01-21 20:32:00,
2013-01-21 15:38:00,11.6,-0.7,29.82,SSW,202,6.7,9.8,57,0.00,,,0.00,WUHU21623XXSP,2013-01-21 20:38:00,
2013-01-21 15:49:00,11.4,-0.9,29.82,NW,315,5.8,5.8,57,0.00,,,0.00,WUHU21623XXSP,2013-01-21 20:49:00,
2013-01-21 15:54:00,11.2,-1.5,29.82,WNW,292,14.3,14.3,56,0.00,,,0.00,WUHU21623XXSP,2013-01-21 20:54:00,
2013-01-21 15:59:00,11.2,-1.5,29.82,NW,315,8.3,14.3,56,0.00,,,0.00,WUHU21623XXSP,2013-01-21 20:59:00,
2013-01-21 16:04:00,11.2,-1.8,29.82,SW,225,0.0,8.3,55,0.00,,,0.00,WUHU21623XXSP,2013-01-21 21:04:00,
2013-01-21 16:09:00,11.1,-1.9,29.82,WNW,292,0.0,0.0,55,0.00,,,0.00,WUHU21623XXSP,2013-01-21 21:09:00,
2013-01-21 16:14:00,11.1,-1.9,29.82,WNW,292,17.7,17.7,55,0.00,,,0.00,WUHU21623XXSP,2013-01-21 21:14:00,
2013-01-21 16:19:00,11.2,-1.8,29.82,NW,315,1.6,17.7,55,0.00,,,0.00,WUHU21623XXSP,2013-01-21 21:19:00,
2013-01-21 16:24:00,11.4,-1.7,29.83,WNW,292,5.6,6.0,55,0.00,,,0.00,WUHU21623XXSP,2013-01-21 21:24:00,
2013-01-21 16:29:00,11.4,-1.7,29.83,WSW,247,7.2,7.2,55,0.00,,,0.00,WUHU21623XXSP,2013-01-21 21:29:00,
2013-01-21 16:34:00,11.4,-1.7,29.83,WNW,292,8.5,8.5,55,0.00,,,0.00,WUHU21623XXSP,2013-01-21 21:34:00,
2013-01-21 16:39:00,11.2,-2.2,29.83,WNW,292,5.8,8.5,54,0.00,,,0.00,WUHU21623XXSP,2013-01-21 21:39:00,
2013-01-21 16:44:00,10.9,-2.5,29.83,SW,225,6.7,6.7,54,0.00,,,0.00,WUHU21623XXSP,2013-01-21 21:44:00,
2013-01-21 16:49:00,10.5,-2.9,29.83,WNW,292,5.8,8.5,54,0.00,,,0.00,WUHU21623XXSP,2013-01-21 21:49:00,
2013-01-21 16:54:00,10.3,-2.7,29.84,NW,315,7.2,8.5,55,0.00,,,0.00,WUHU21623XXSP,2013-01-21 21:54:00,
2013-01-21 16:59:00,10.2,-2.4,29.84,NW,315,6.9,7.2,56,0.00,,,0.00,WUHU21623XXSP,2013-01-21 21:59:00,
2013-01-21 17:04:00,9.6,-2.2,29.83,WNW,292,8.9,8.9,58,0.00,,,0.00,WUHU21623XXSP,2013-01-21 22:04:00,
2013-01-21 17:09:00,9.6,-1.8,29.84,NNW,337,11.6,11.6,59,0.00,,,0.00,WUHU21623XXSP,2013-01-21 22:09:00,
2013-01-21 17:14:00,9.4,-2.0,29.84,WNW,292,3.6,11.6,59,0.00,,,0.00,WUHU21623XXSP,2013-01-21 22:14:00,
2013-01-21 17:19:00,9.4,-2.0,29.84,North,0,10.5,10.5,59,0.00,,,0.00,WUHU21623XXSP,2013-01-21 22:19:00,
2013-01-21 17:24:00,9.3,-2.1,29.84,North,0,10.5,10.5,59,0.00,,,0.00,WUHU21623XXSP,2013-01-21 22:24:00,
2013-01-21 17:29:00,8.7,-2.3,29.85,WSW,247,9.2,10.5,60,0.00,,,0.00,WUHU21623XXSP,2013-01-21 22:29:00,
2013-01-21 17:36:00,8.5,-2.5,29.86,NW,315,9.6,9.6,60,0.00,,,0.00,WUHU21623XXSP,2013-01-21 22:36:00,
2013-01-21 17:41:00,8.2,-2.8,29.85,WNW,292,6.3,9.6,60,0.00,,,0.00,WUHU21623XXSP,2013-01-21 22:41:00,
2013-01-21 17:46:00,8.2,-2.4,29.86,NNW,337,8.3,8.3,61,0.00,,,0.00,WUHU21623XXSP,2013-01-21 22:46:00,
2013-01-21 17:51:00,7.8,-2.8,29.86,NW,315,5.6,9.4,61,0.00,,,0.00,WUHU21623XXSP,2013-01-21 22:51:00,
2013-01-21 17:56:00,7.6,-3.0,29.85,NNW,337,4.3,9.4,61,0.00,,,0.00,WUHU21623XXSP,2013-01-21 22:56:00,
2013-01-21 18:01:00,7.5,-3.1,29.85,North,0,3.6,4.3,61,0.00,,,0.00,WUHU21623XXSP,2013-01-21 23:01:00,
2013-01-21 18:08:00,7.1,-3.5,29.86,WSW,247,2.9,6.7,61,0.00,,,0.00,WUHU21623XXSP,2013-01-21 23:08:00,
2013-01-21 18:13:00,6.9,-3.3,29.86,NW,315,3.4,3.4,62,0.00,,,0.00,WUHU21623XXSP,2013-01-21 23:13:00,
2013-01-21 18:18:00,6.9,-3.3,29.86,NW,315,3.1,3.4,62,0.00,,,0.00,WUHU21623XXSP,2013-01-21 23:18:00,
2013-01-21 18:23:00,6.7,-3.5,29.86,NW,315,0.0,3.1,62,0.00,,,0.00,WUHU21623XXSP,2013-01-21 23:23:00,
2013-01-21 18:28:00,6.6,-3.6,29.87,NNW,337,4.7,4.7,62,0.00,,,0.00,WUHU21623XXSP,2013-01-21 23:28:00,
2013-01-21 18:33:00,6.4,-3.8,29.87,WNW,292,0.0,4.7,62,0.00,,,0.00,WUHU21623XXSP,2013-01-21 23:33:00,
2013-01-21 18:38:00,6.4,-3.8,29.87,WNW,292,8.3,8.3,62,0.00,,,0.00,WUHU21623XXSP,2013-01-21 23:38:00,
2013-01-21 18:43:00,6.2,-4.0,29.87,NW,315,2.7,8.3,62,0.00,,,0.00,WUHU21623XXSP,2013-01-21 23:43:00,
2013-01-21 18:48:00,6.2,-4.0,29.87,WNW,292,6.0,6.0,62,0.00,,,0.00,WUHU21623XXSP,2013-01-21 23:48:00,
2013-01-21 18:53:00,6.0,-4.2,29.87,NNW,337,4.3,6.0,62,0.00,,,0.00,WUHU21623XXSP,2013-01-21 23:53:00,
2013-01-21 18:58:00,5.8,-4.4,29.88,NNW,337,4.3,4.3,62,0.00,,,0.00,WUHU21623XXSP,2013-01-21 23:58:00,
2013-01-21 19:03:00,5.7,-4.5,29.87,West,270,9.4,9.4,62,0.00,,,0.00,WUHU21623XXSP,2013-01-22 00:03:00,
2013-01-21 19:08:00,5.7,-4.5,29.88,WNW,292,6.3,9.4,62,0.00,,,0.00,WUHU21623XXSP,2013-01-22 00:08:00,
2013-01-21 19:13:00,5.5,-4.7,29.88,WNW,292,2.2,6.3,62,0.00,,,0.00,WUHU21623XXSP,2013-01-22 00:13:00,
2013-01-21 19:18:00,5.3,-4.9,29.88,North,0,4.0,5.4,62,0.00,,,0.00,WUHU21623XXSP,2013-01-22 00:18:00,
2013-01-21 19:23:00,5.1,-5.0,29.88,NW,315,1.8,5.4,62,0.00,,,0.00,WUHU21623XXSP,2013-01-22 00:23:00,
2013-01-21 19:36:00,5.1,-4.7,29.88,West,270,0.0,0.0,63,0.00,,,0.00,WUHU21623XXSP,2013-01-22 00:36:00,
2013-01-21 20:27:00,4.6,-5.2,29.89,West,270,3.8,3.8,63,0.00,,,0.00,WUHU21623XXSP,2013-01-22 01:27:00,
2013-01-21 20:44:00,4.2,-5.9,29.89,WNW,292,2.7,2.7,62,0.00,,,0.00,WUHU21623XXSP,2013-01-22 01:44:00,
2013-01-21 20:53:00,4.0,-6.1,29.89,WNW,292,5.6,5.6,62,0.00,,,0.00,WUHU21623XXSP,2013-01-22 01:53:00,
2013-01-21 20:58:00,4.0,-6.1,29.90,WNW,292,1.6,5.6,62,0.00,,,0.00,WUHU21623XXSP,2013-01-22 01:58:00,
2013-01-21 21:03:00,4.0,-6.1,29.89,WNW,292,1.6,1.6,62,0.00,,,0.00,WUHU21623XXSP,2013-01-22 02:03:00,
2013-01-21 21:08:00,3.9,-6.2,29.89,West,270,4.5,4.5,62,0.00,,,0.00,WUHU21623XXSP,2013-01-22 02:08:00,
2013-01-21 21:13:00,3.7,-6.0,29.89,WNW,292,8.3,8.3,63,0.00,,,0.00,WUHU21623XXSP,2013-01-22 02:13:00,
2013-01-21 21:23:00,3.5,-6.2,29.90,NW,315,6.5,6.5,63,0.00,,,0.00,WUHU21623XXSP,2013-01-22 02:23:00,
2013-01-21 21:28:00,3.3,-6.4,29.90,WNW,292,3.8,6.5,63,0.00,,,0.00,WUHU21623XXSP,2013-01-22 02:28:00,
2013-01-21 21:36:00,3.3,-6.4,29.90,West,270,6.7,6.7,63,0.00,,,0.00,WUHU21623XXSP,2013-01-22 02:36:00,
2013-01-21 21:40:00,3.3,-6.4,29.90,West,270,4.3,6.7,63,0.00,,,0.00,WUHU21623XXSP,2013-01-22 02:40:00,
2013-01-21 22:03:00,3.0,-6.4,29.90,West,270,9.8,9.8,64,0.00,,,0.00,WUHU21623XXSP,2013-01-22 03:03:00,
2013-01-21 22:08:00,3.0,-6.4,29.90,WNW,292,8.7,9.8,64,0.00,,,0.00,WUHU21623XXSP,2013-01-22 03:08:00,
2013-01-21 22:13:00,3.0,-6.4,29.91,WNW,292,8.7,8.7,64,0.00,,,0.00,WUHU21623XXSP,2013-01-22 03:13:00,
2013-01-21 22:18:00,2.8,-6.6,29.91,WSW,247,3.4,8.7,64,0.00,,,0.00,WUHU21623XXSP,2013-01-22 03:18:00,
2013-01-21 22:29:00,2.6,-6.4,29.91,NW,315,10.1,10.1,65,0.00,,,0.00,WUHU21623XXSP,2013-01-22 03:29:00,
2013-01-21 22:35:00,2.6,-6.4,29.91,WSW,247,2.7,10.1,65,0.00,,,0.00,WUHU21623XXSP,2013-01-22 03:35:00,
2013-01-21 22:42:00,2.4,-6.6,29.91,WSW,247,4.5,4.5,65,0.00,,,0.00,WUHU21623XXSP,2013-01-22 03:42:00,
2013-01-21 22:50:00,2.4,-6.6,29.91,WNW,292,5.1,5.1,65,0.00,,,0.00,WUHU21623XXSP,2013-01-22 03:50:00,
2013-01-21 23:03:00,2.2,-6.8,29.91,West,270,9.6,9.6,65,0.00,,,0.00,WUHU21623XXSP,2013-01-22 04:03:00,
2013-01-21 23:14:00,2.2,-6.8,29.91,SW,225,4.7,4.7,65,0.00,,,0.00,WUHU21623XXSP,2013-01-22 04:14:00,